Time;durP1;ratioP1;P1;durP2;ratioP2;P2;SDS_P1;SDS_P2;PMS_P1;PMS_P2;Temp;Humidity;BMP_temperature;BMP_pressure;BME280_temperature;BME280_humidity;BME280_pressure;Samples;Min_cycle;Max_cycle;Signal;HPM_P1;HPM_P2
2022/04/20 00:01:42;;;;;;;3.80;3.70;;;;;;;8.49;52.63;101073.09;6107859;23;20075;-69
2022/04/20 00:04:11;;;;;;;3.67;3.58;;;;;;;8.44;52.74;101069.78;6099520;23;20087;-69
2022/04/20 00:06:38;;;;;;;3.90;3.70;;;;;;;8.47;52.21;101070.53;6104549;23;20013;-68
2022/04/20 00:09:05;;;;;;;3.70;3.60;;;;;;;8.45;52.52;101072.34;6094212;23;20020;-68
2022/04/20 00:11:31;;;;;;;4.90;4.70;;;;;;;8.37;51.68;101077.84;6109276;23;20282;-68
2022/04/20 00:13:58;;;;;;;3.50;3.40;;;;;;;8.15;52.64;101050.78;6111144;23;20019;-69
2022/04/20 00:16:24;;;;;;;5.53;5.25;;;;;;;7.87;52.54;100993.44;6093600;23;20025;-69
2022/04/20 00:18:51;;;;;;;3.53;3.42;;;;;;;8.26;52.94;101073.91;6096972;23;20083;-68
2022/04/20 00:21:23;;;;;;;4.38;4.15;;;;;;;8.06;53.22;101036.28;6093040;23;20076;-69
2022/04/20 00:23:50;;;;;;;3.70;3.60;;;;;;;8.01;53.84;101037.38;6098842;23;20443;-69
2022/04/20 00:26:16;;;;;;;4.55;4.38;;;;;;;8.11;53.84;101059.63;6113959;23;20099;-69
2022/04/20 00:28:42;;;;;;;4.10;3.90;;;;;;;8.13;54.13;101063.91;6110771;23;20080;-69
2022/04/20 00:31:09;;;;;;;3.80;3.70;;;;;;;7.63;54.87;100989.94;6100313;23;20021;-68
2022/04/20 00:33:37;;;;;;;3.78;3.67;;;;;;;7.80;54.62;101024.16;6091358;23;20083;-68
2022/04/20 00:36:04;;;;;;;3.58;3.47;;;;;;;7.97;55.45;101052.28;6080261;23;20443;-68
2022/04/20 00:38:31;;;;;;;5.20;5.00;;;;;;;7.88;55.07;101036.97;6106013;23;20032;-68
2022/04/20 00:40:57;;;;;;;3.30;3.20;;;;;;;7.93;55.69;101058.53;6111555;23;20042;-68
2022/04/20 00:43:24;;;;;;;5.45;5.25;;;;;;;8.01;54.98;101068.72;6097791;23;20029;-68
2022/04/20 00:45:52;;;;;;;3.40;3.30;;;;;;;7.03;55.79;100926.72;6109911;23;20026;-68
2022/04/20 00:48:20;;;;;;;5.88;5.63;;;;;;;7.79;55.94;101074.69;6084451;23;20049;-68
2022/04/20 00:50:47;;;;;;;3.95;3.83;;;;;;;7.71;55.98;101071.50;6099681;23;20022;-68
2022/04/20 00:53:13;;;;;;;3.70;3.60;;;;;;;7.54;56.67;101059.88;6107246;23;20470;-69
2022/04/20 00:55:40;;;;;;;3.90;3.70;;;;;;;7.46;57.53;101068.88;6094722;23;20383;-69
2022/04/20 00:58:06;;;;;;;3.58;3.47;;;;;;;7.44;57.87;101049.75;6102270;23;20037;-69
2022/04/20 01:00:33;;;;;;;4.07;3.88;;;;;;;7.57;57.34;101078.03;6063539;23;20091;-70
2022/04/20 01:02:59;;;;;;;3.60;3.50;;;;;;;7.35;57.84;101045.72;6109363;23;20104;-70
2022/04/20 01:05:26;;;;;;;5.30;5.10;;;;;;;7.31;57.71;101046.72;6082085;23;20078;-69
2022/04/20 01:07:52;;;;;;;3.70;3.60;;;;;;;7.20;58.10;101041.88;6087767;23;20100;-69
2022/04/20 01:10:19;;;;;;;3.60;3.50;;;;;;;7.31;57.57;101065.84;6082513;23;20095;-69
2022/04/20 01:12:46;;;;;;;3.60;3.50;;;;;;;7.10;57.64;101040.44;6106032;23;20018;-70
2022/04/20 01:15:13;;;;;;;3.40;3.30;;;;;;;7.28;57.32;101065.09;6115183;23;20021;-69
2022/04/20 01:17:39;;;;;;;3.42;3.33;;;;;;;7.05;58.11;101045.81;6111990;23;20727;-70
2022/04/20 01:20:13;;;;;;;3.50;3.40;;;;;;;6.94;57.41;101022.66;6113094;23;20386;-70
2022/04/20 01:22:41;;;;;;;3.85;3.70;;;;;;;7.15;58.42;101067.25;6112336;23;20055;-70
2022/04/20 01:25:08;;;;;;;4.32;4.03;;;;;;;7.11;57.16;101066.47;6114530;23;20022;-70
2022/04/20 01:27:36;;;;;;;3.70;3.50;;;;;;;7.08;57.68;101061.38;6120226;23;20043;-69
2022/04/20 01:30:03;;;;;;;3.38;3.28;;;;;;;7.05;58.15;101061.47;6119239;23;20292;-69
2022/04/20 01:32:30;;;;;;;4.85;4.65;;;;;;;7.01;57.33;101061.63;6108836;23;20066;-68
2022/04/20 01:34:56;;;;;;;3.50;3.40;;;;;;;6.07;58.63;100918.47;6120560;23;20040;-70
2022/04/20 01:37:23;;;;;;;4.97;4.78;;;;;;;6.88;59.82;101062.00;6114846;23;20506;-70
2022/04/20 01:39:49;;;;;;;3.72;3.63;;;;;;;6.67;60.86;101026.97;6108769;23;20017;-70
2022/04/20 01:42:17;;;;;;;4.38;4.22;;;;;;;6.90;60.45;101069.78;6095939;23;20332;-68
2022/04/20 01:44:43;;;;;;;3.50;3.40;;;;;;;6.80;60.85;101053.56;6118027;23;20025;-69
2022/04/20 01:47:10;;;;;;;3.50;3.40;;;;;;;6.44;60.80;101011.19;6100367;23;20360;-70
2022/04/20 01:49:36;;;;;;;3.83;3.70;;;;;;;6.74;61.50;101064.19;6099685;23;20032;-70
2022/04/20 01:52:03;;;;;;;3.50;3.40;;;;;;;6.35;61.61;101005.38;6103356;23;20081;-69
2022/04/20 01:54:30;;;;;;;3.92;3.72;;;;;;;6.52;62.08;101035.28;6101476;23;20278;-70
2022/04/20 01:56:56;;;;;;;3.50;3.40;;;;;;;6.73;61.39;101078.97;6097753;23;20092;-71
2022/04/20 01:59:23;;;;;;;5.20;5.00;;;;;;;6.78;60.79;101071.00;6115134;23;20088;-71
2022/04/20 02:04:34;;;;;;;4.10;3.90;;;;;;;6.74;60.79;101049.38;6103556;23;20017;-71
2022/04/20 02:07:00;;;;;;;3.47;3.38;;;;;;;6.96;61.01;101072.19;6109006;23;20088;-69
2022/04/20 02:09:27;;;;;;;5.32;5.13;;;;;;;6.79;60.18;101049.22;6107917;23;20035;-70
2022/04/20 02:11:53;;;;;;;3.42;3.33;;;;;;;6.76;60.04;101044.13;6114678;23;20225;-70
2022/04/20 02:14:20;;;;;;;4.93;4.72;;;;;;;6.93;60.03;101067.91;6124446;23;20035;-71
2022/04/20 02:16:46;;;;;;;3.33;3.22;;;;;;;6.93;60.80;101067.06;6086358;23;20018;-70
2022/04/20 02:19:13;;;;;;;3.63;3.53;;;;;;;6.84;60.78;101062.16;6118628;23;20021;-71
2022/04/20 02:21:39;;;;;;;3.40;3.30;;;;;;;6.79;61.69;101055.31;6092118;23;20018;-70
2022/04/20 02:24:06;;;;;;;3.53;3.42;;;;;;;6.70;62.31;101044.31;6106148;23;20352;-70
2022/04/20 02:26:32;;;;;;;3.30;3.20;;;;;;;6.86;62.25;101070.78;6120181;23;20079;-71
2022/04/20 02:28:59;;;;;;;3.40;3.30;;;;;;;6.80;62.74;101066.59;6112540;23;20037;-70
2022/04/20 02:31:25;;;;;;;5.18;4.97;;;;;;;6.62;62.48;101046.31;6104753;23;20053;-70
2022/04/20 02:33:52;;;;;;;3.30;3.20;;;;;;;6.68;63.52;101070.44;6115552;23;20399;-70
2022/04/20 02:36:18;;;;;;;4.45;4.25;;;;;;;6.51;64.18;101044.00;6103911;23;20013;-70
2022/04/20 02:38:45;;;;;;;4.00;3.80;;;;;;;6.59;65.06;101070.69;6114346;23;20547;-70
2022/04/20 02:41:12;;;;;;;3.30;3.20;;;;;;;6.65;64.70;101078.34;6100887;23;20089;-71
2022/04/20 02:43:38;;;;;;;3.58;3.45;;;;;;;6.02;65.63;100988.94;6108874;23;20018;-69
2022/04/20 02:46:06;;;;;;;3.60;3.50;;;;;;;6.35;66.07;101054.00;6113830;23;20043;-68
2022/04/20 02:48:32;;;;;;;3.97;3.78;;;;;;;6.53;64.54;101076.94;6099965;23;20016;-68
2022/04/20 02:50:59;;;;;;;3.60;3.40;;;;;;;6.18;64.51;101024.09;6098844;23;20025;-68
2022/04/20 02:53:25;;;;;;;4.95;4.75;;;;;;;6.55;64.61;101087.34;6080936;23;20025;-68
2022/04/20 02:55:52;;;;;;;3.28;3.17;;;;;;;6.38;64.92;101051.34;6082039;23;20238;-68
2022/04/20 02:58:19;;;;;;;4.82;4.63;;;;;;;6.61;64.94;101083.69;6091160;23;20080;-68
2022/04/20 03:00:45;;;;;;;3.28;3.17;;;;;;;6.14;65.05;101026.84;6095048;23;20461;-69
2022/04/20 03:03:12;;;;;;;3.28;3.17;;;;;;;6.49;65.07;101088.34;6078858;23;20026;-68
2022/04/20 03:05:39;;;;;;;3.30;3.20;;;;;;;6.59;62.81;101091.56;6076860;23;20010;-68
2022/04/20 03:08:05;;;;;;;3.28;3.17;;;;;;;6.57;62.60;101091.63;6103937;23;20712;-69
2022/04/20 03:10:32;;;;;;;4.60;4.40;;;;;;;6.18;60.41;101005.00;6107947;23;20025;-69
2022/04/20 03:12:59;;;;;;;3.22;3.13;;;;;;;6.66;60.20;101093.09;6088146;23;20255;-69
2022/04/20 03:15:25;;;;;;;5.03;4.82;;;;;;;6.23;59.94;101016.13;6097872;23;20272;-68
2022/04/20 03:17:51;;;;;;;3.58;3.47;;;;;;;6.50;60.78;101065.78;6103289;23;20479;-69
2022/04/20 03:20:18;;;;;;;4.57;4.38;;;;;;;6.31;60.65;101037.59;6118438;23;20028;-69
2022/04/20 03:22:46;;;;;;;3.28;3.08;;;;;;;6.57;61.33;101090.75;6106085;23;20016;-69
2022/04/20 03:25:12;;;;;;;3.53;3.38;;;;;;;6.52;61.25;101097.88;6121984;23;20586;-68
2022/04/20 03:27:39;;;;;;;4.78;4.57;;;;;;;6.23;62.18;101073.47;6099712;23;20018;-69
2022/04/20 03:30:06;;;;;;;3.30;3.20;;;;;;;6.24;63.02;101093.44;6115311;23;20573;-69
2022/04/20 03:32:34;;;;;;;4.20;4.00;;;;;;;5.96;65.02;101068.13;6086382;23;20291;-69
2022/04/20 03:35:01;;;;;;;3.70;3.40;;;;;;;5.88;65.75;101071.81;6086824;23;20010;-71
2022/04/20 03:37:27;;;;;;;5.15;4.95;;;;;;;5.77;65.53;101080.75;6073675;23;20070;-71
2022/04/20 03:39:55;;;;;;;3.20;3.10;;;;;;;5.87;65.30;101099.59;6102552;23;20471;-71
2022/04/20 03:42:22;;;;;;;4.35;4.15;;;;;;;5.55;65.04;101067.44;6113439;23;20005;-72
2022/04/20 03:44:48;;;;;;;3.55;3.45;;;;;;;5.17;66.39;101016.31;6108033;23;20014;-71
2022/04/20 03:47:14;;;;;;;3.47;3.35;;;;;;;5.30;66.85;101038.56;6095766;23;20024;-72
2022/04/20 03:49:41;;;;;;;3.28;3.17;;;;;;;5.05;67.14;101004.50;6103246;23;20033;-71
2022/04/20 03:52:07;;;;;;;3.15;3.05;;;;;;;5.49;66.97;101088.44;6100841;23;20033;-71
2022/04/20 03:54:35;;;;;;;4.20;4.00;;;;;;;5.31;67.88;101073.25;6118854;23;20671;-71
2022/04/20 03:57:03;;;;;;;3.45;3.35;;;;;;;5.46;67.73;101098.91;6095497;23;20029;-71
2022/04/20 03:59:31;;;;;;;4.85;4.65;;;;;;;5.43;68.03;101113.72;6093468;23;20455;-71
2022/04/20 04:01:58;;;;;;;3.40;3.20;;;;;;;5.18;68.30;101073.53;6111860;23;20033;-72
2022/04/20 04:04:25;;;;;;;5.05;4.85;;;;;;;4.96;69.34;101044.56;6101944;23;20062;-70
2022/04/20 04:06:51;;;;;;;3.38;3.28;;;;;;;5.37;69.40;101109.53;6095954;23;20411;-72
2022/04/20 04:09:18;;;;;;;4.18;4.00;;;;;;;5.23;69.81;101090.78;6106802;23;20026;-69
2022/04/20 04:11:44;;;;;;;3.30;3.20;;;;;;;5.44;70.08;101116.31;6113454;23;20504;-70
2022/04/20 04:14:11;;;;;;;3.10;3.00;;;;;;;5.14;70.31;101047.63;6125780;23;20045;-72
2022/04/20 04:16:37;;;;;;;3.78;3.58;;;;;;;5.56;70.35;101122.97;6094791;23;20045;-70
2022/04/20 04:19:05;;;;;;;3.40;3.30;;;;;;;5.54;70.11;101125.59;6117777;23;20033;-71
2022/04/20 04:21:32;;;;;;;3.10;3.00;;;;;;;5.50;70.02;101125.72;6116540;23;20462;-70
2022/04/20 04:23:59;;;;;;;3.40;3.30;;;;;;;5.47;70.37;101115.38;6117098;23;20013;-70
2022/04/20 04:26:27;;;;;;;3.42;3.33;;;;;;;5.25;70.60;101092.47;6120365;23;20022;-70
2022/04/20 04:28:54;;;;;;;3.10;3.00;;;;;;;5.12;70.21;101086.69;6115548;23;20029;-70
2022/04/20 04:31:20;;;;;;;3.20;3.10;;;;;;;5.27;70.54;101123.66;6114243;23;20205;-70
2022/04/20 04:33:47;;;;;;;3.28;3.17;;;;;;;5.22;71.36;101128.13;6096661;23;20037;-68
2022/04/20 04:36:13;;;;;;;3.20;3.10;;;;;;;5.03;71.39;101106.84;6122703;23;20033;-68
2022/04/20 04:38:39;;;;;;;3.40;3.30;;;;;;;4.65;70.63;101043.56;6101593;23;20005;-68
2022/04/20 04:41:06;;;;;;;3.30;3.20;;;;;;;5.06;71.47;101114.59;6110913;23;20021;-69
2022/04/20 04:43:32;;;;;;;4.00;3.80;;;;;;;5.12;70.91;101111.84;6109482;23;20047;-68
2022/04/20 04:48:48;;;;;;;3.85;3.65;;;;;;;5.58;70.12;101082.97;6111959;23;20014;-68
2022/04/20 04:51:15;;;;;;;3.75;3.63;;;;;;;5.98;69.72;101108.00;6108979;23;20036;-68
2022/04/20 04:53:42;;;;;;;3.33;3.22;;;;;;;5.74;68.00;101067.81;6114916;23;20105;-68
2022/04/20 04:56:10;;;;;;;3.58;3.47;;;;;;;5.76;68.34;101055.59;6111196;23;20420;-68
2022/04/20 04:58:36;;;;;;;3.20;3.10;;;;;;;6.15;67.62;101122.34;6099338;23;20009;-69
2022/04/20 05:01:03;;;;;;;3.33;3.20;;;;;;;5.80;67.59;101062.44;6108552;23;20089;-68
2022/04/20 05:03:29;;;;;;;5.05;4.85;;;;;;;6.12;68.09;101105.03;6116220;23;20076;-69
2022/04/20 05:05:56;;;;;;;3.20;3.10;;;;;;;5.94;67.38;101069.88;6118847;23;20033;-69
2022/04/20 05:08:22;;;;;;;3.40;3.30;;;;;;;6.47;66.40;101142.31;6102016;23;20013;-69
2022/04/20 05:10:49;;;;;;;3.47;3.38;;;;;;;6.53;65.14;101149.09;6124699;23;20013;-69
2022/04/20 05:13:16;;;;;;;3.45;3.35;;;;;;;6.62;65.12;101146.25;6115460;23;20009;-68
2022/04/20 05:15:42;;;;;;;3.50;3.40;;;;;;;6.69;63.82;101147.75;6121300;23;20245;-69
2022/04/20 05:18:09;;;;;;;3.22;3.13;;;;;;;6.84;63.93;101154.31;6113881;23;20029;-69
2022/04/20 05:20:35;;;;;;;3.38;3.28;;;;;;;6.65;63.06;101096.59;6115414;23;20379;-69
2022/04/20 05:23:02;;;;;;;3.45;3.35;;;;;;;6.96;62.63;101125.25;6109789;23;20014;-68
2022/04/20 05:25:28;;;;;;;4.85;4.65;;;;;;;7.29;62.57;101156.41;6087665;23;20056;-68
2022/04/20 05:27:55;;;;;;;3.45;3.35;;;;;;;7.29;62.50;101121.63;6088687;23;20010;-68
2022/04/20 05:30:21;;;;;;;4.95;4.65;;;;;;;7.82;61.59;101153.00;6083401;23;20324;-69
2022/04/20 05:32:48;;;;;;;3.60;3.50;;;;;;;8.41;60.15;101137.88;6083943;23;20014;-69
2022/04/20 05:35:14;;;;;;;3.58;3.47;;;;;;;9.15;59.35;101134.22;6089998;23;20041;-70
2022/04/20 05:43:10;;;;;;;4.00;3.80;;;;;;;10.94;55.02;101147.63;6088359;23;20534;-69
2022/04/20 05:45:37;;;;;;;4.35;4.05;;;;;;;11.12;53.46;101153.78;6083621;23;20038;-70
2022/04/20 05:48:04;;;;;;;3.70;3.60;;;;;;;10.89;53.01;101120.75;6086250;23;20085;-70
2022/04/20 05:50:31;;;;;;;4.13;3.92;;;;;;;10.55;53.00;101127.53;6079875;23;20088;-70
2022/04/20 05:52:57;;;;;;;4.20;4.00;;;;;;;10.27;54.11;101135.75;6087147;23;20020;-69
2022/04/20 05:55:23;;;;;;;5.35;5.15;;;;;;;10.14;55.00;101151.16;6079612;23;20528;-70
2022/04/20 05:57:50;;;;;;;3.85;3.75;;;;;;;9.91;55.98;101153.00;6087176;23;20097;-70
2022/04/20 06:00:17;;;;;;;4.57;4.38;;;;;;;8.58;56.69;100962.91;6079143;23;20022;-70
2022/04/20 06:02:43;;;;;;;4.43;4.20;;;;;;;9.66;57.11;101153.19;6081287;23;20240;-70
2022/04/20 06:05:10;;;;;;;4.20;4.00;;;;;;;9.45;56.98;101136.53;6082259;23;20029;-70
2022/04/20 06:07:36;;;;;;;4.00;3.80;;;;;;;9.43;57.80;101120.03;6082250;23;20049;-70
2022/04/20 06:10:04;;;;;;;3.80;3.70;;;;;;;9.26;56.91;101105.03;6090233;23;20021;-69
2022/04/20 06:12:30;;;;;;;4.00;3.80;;;;;;;9.18;55.47;101117.53;6081145;23;20073;-70
2022/04/20 06:14:57;;;;;;;4.25;4.05;;;;;;;9.54;55.38;101157.16;6086592;23;20049;-70
2022/04/20 06:17:23;;;;;;;4.20;4.00;;;;;;;9.63;55.67;101155.91;6081297;23;20030;-69
2022/04/20 06:19:49;;;;;;;4.10;3.90;;;;;;;9.79;54.80;101156.13;6085384;23;20025;-69
2022/04/20 06:22:16;;;;;;;4.70;4.50;;;;;;;9.89;56.42;101151.38;6083521;23;20447;-70
2022/04/20 06:24:42;;;;;;;4.15;3.95;;;;;;;9.92;56.06;101140.72;6107462;23;20538;-70
2022/04/20 06:27:09;;;;;;;4.00;3.80;;;;;;;10.09;55.02;101161.00;6111302;23;20060;-68
2022/04/20 06:29:35;;;;;;;4.20;4.00;;;;;;;9.95;54.75;101140.63;6108870;23;20212;-69
2022/04/20 06:32:02;;;;;;;3.97;3.78;;;;;;;10.27;55.16;101154.13;6115417;23;20134;-70
2022/04/20 06:34:29;;;;;;;5.07;4.88;;;;;;;10.41;55.17;101164.88;6108871;23;20522;-69
2022/04/20 06:36:55;;;;;;;3.83;3.72;;;;;;;10.48;53.46;101157.59;6114315;23;20056;-70
2022/04/20 06:39:21;;;;;;;4.95;4.75;;;;;;;10.69;53.31;101175.00;6113646;23;20063;-70
2022/04/20 06:41:48;;;;;;;4.20;4.00;;;;;;;10.82;52.77;101163.94;6112224;23;20017;-69
2022/04/20 06:44:15;;;;;;;4.30;4.10;;;;;;;10.95;52.17;101162.47;6111642;23;20009;-70
2022/04/20 06:46:41;;;;;;;4.00;3.80;;;;;;;10.42;51.73;101079.16;6117190;23;20019;-70
2022/04/20 06:49:07;;;;;;;4.53;4.30;;;;;;;11.12;51.95;101162.50;6108142;23;20017;-69
2022/04/20 06:59:50;;;;;;;4.20;4.00;;;;;;;11.58;49.73;101160.31;6105550;23;20006;-70
2022/04/20 07:02:16;;;;;;;4.85;4.65;;;;;;;11.70;48.47;101158.84;6108583;23;20049;-70
2022/04/20 07:04:43;;;;;;;4.22;4.03;;;;;;;11.61;45.81;101148.81;6100475;23;20022;-69
2022/04/20 07:07:10;;;;;;;4.13;3.92;;;;;;;11.63;46.01;101130.34;6086961;23;20050;-69
2022/04/20 07:09:36;;;;;;;4.28;4.07;;;;;;;11.61;46.03;101109.38;6105963;23;20360;-69
2022/04/20 07:12:03;;;;;;;4.55;4.25;;;;;;;11.93;44.03;101154.28;6092212;23;20055;-69
2022/04/20 07:14:29;;;;;;;6.03;5.55;;;;;;;11.93;44.96;101156.91;6097893;23;20059;-69
2022/04/20 07:16:56;;;;;;;4.20;4.00;;;;;;;11.83;42.44;101130.19;6097281;23;20073;-70
2022/04/20 07:19:22;;;;;;;5.68;5.47;;;;;;;11.76;42.91;101097.22;6085229;23;20364;-69
2022/04/20 07:21:49;;;;;;;4.50;4.30;;;;;;;11.98;43.11;101120.69;6099792;23;20196;-69
2022/04/20 07:24:15;;;;;;;4.45;4.25;;;;;;;12.09;43.31;101114.88;6105319;23;20603;-70
2022/04/20 07:26:41;;;;;;;4.50;4.30;;;;;;;12.43;42.67;101160.47;6110295;23;20031;-70
2022/04/20 07:29:08;;;;;;;4.18;3.97;;;;;;;12.61;43.07;101159.53;6106569;23;20033;-70
2022/04/20 07:31:34;;;;;;;5.07;4.88;;;;;;;12.70;41.61;101163.44;6104191;23;20229;-69
2022/04/20 07:34:01;;;;;;;4.10;3.90;;;;;;;12.69;41.74;101161.72;6110133;23;20118;-69
2022/04/20 07:36:27;;;;;;;5.93;5.65;;;;;;;12.60;40.03;101122.72;6105179;23;20025;-70
2022/04/20 07:38:53;;;;;;;4.40;4.20;;;;;;;12.58;39.36;101114.91;6108910;23;20174;-70
2022/04/20 07:41:20;;;;;;;4.95;4.72;;;;;;;12.56;38.40;101137.84;6104588;23;20033;-70
2022/04/20 07:43:46;;;;;;;4.55;4.35;;;;;;;12.92;37.57;101179.78;6078982;23;20017;-69
2022/04/20 07:46:16;;;;;;;4.70;4.50;;;;;;;12.94;37.81;101169.16;6084101;23;21708;-70
2022/04/20 07:48:43;;;;;;;4.50;4.30;;;;;;;12.80;37.84;101148.00;6105045;23;20029;-69
2022/04/20 07:51:09;;;;;;;4.50;4.30;;;;;;;13.09;37.68;101170.97;6109988;23;20061;-70
2022/04/20 07:53:35;;;;;;;4.40;4.20;;;;;;;12.95;37.62;101170.88;6103954;23;20012;-69
2022/04/20 07:56:02;;;;;;;4.32;4.13;;;;;;;13.18;36.65;101193.31;6108570;23;20159;-69
2022/04/20 07:58:28;;;;;;;6.00;5.70;;;;;;;12.92;36.77;101119.19;6107247;23;20041;-70
2022/04/20 08:00:55;;;;;;;4.60;4.40;;;;;;;13.25;36.69;101193.81;6105446;23;20392;-69
2022/04/20 08:03:22;;;;;;;6.07;5.78;;;;;;;13.30;36.04;101179.47;6102156;23;20435;-69
2022/04/20 08:05:54;;;;;;;4.45;4.25;;;;;;;13.40;36.19;101186.88;6115180;23;20291;-69
2022/04/20 08:08:22;;;;;;;6.10;5.80;;;;;;;13.55;37.22;101184.22;6102580;23;20082;-68
2022/04/20 08:10:49;;;;;;;4.50;4.30;;;;;;;13.44;36.16;101128.59;6109090;23;20304;-69
2022/04/20 08:16:01;;;;;;;4.40;4.20;;;;;;;13.76;35.48;101173.38;6112282;23;20422;-69
2022/04/20 08:18:28;;;;;;;6.13;5.82;;;;;;;13.70;35.36;101158.75;6096682;23;20030;-69
2022/04/20 08:20:54;;;;;;;4.50;4.30;;;;;;;13.40;35.72;101120.97;6113453;23;20080;-69
2022/04/20 08:23:21;;;;;;;6.18;5.88;;;;;;;13.33;35.43;101086.19;6099401;23;20005;-69
2022/04/20 08:25:47;;;;;;;4.65;4.45;;;;;;;13.41;34.81;101138.47;6106336;23;20101;-69
2022/04/20 08:28:14;;;;;;;4.47;4.28;;;;;;;13.61;34.99;101158.44;6113435;23;20451;-71
2022/04/20 08:30:40;;;;;;;4.40;4.20;;;;;;;14.08;36.52;101184.69;6067175;23;20663;-70
2022/04/20 08:33:08;;;;;;;4.50;4.30;;;;;;;14.24;34.84;101194.34;6096116;23;20241;-73
2022/04/20 08:35:36;;;;;;;4.68;4.47;;;;;;;13.94;35.67;101177.56;6094145;23;20014;-71
2022/04/20 08:38:05;;;;;;;5.13;4.85;;;;;;;13.81;35.08;101154.63;6093251;23;20343;-73
2022/04/20 08:40:33;;;;;;;5.50;5.30;;;;;;;13.92;34.61;101202.38;6081242;23;20032;-70
2022/04/20 08:43:01;;;;;;;4.70;4.50;;;;;;;14.07;35.36;101196.19;6102875;23;20029;-72
2022/04/20 08:45:28;;;;;;;5.70;5.47;;;;;;;13.55;34.41;101085.78;6103995;23;20029;-74
2022/04/20 08:47:57;;;;;;;5.13;4.88;;;;;;;14.25;34.58;101190.75;6075884;23;20014;-76
2022/04/20 08:50:25;;;;;;;5.63;5.43;;;;;;;14.18;35.72;101189.44;6091579;23;20063;-70
2022/04/20 08:52:55;;;;;;;4.88;4.68;;;;;;;14.04;34.77;101166.50;6099132;23;20089;-69
2022/04/20 08:55:22;;;;;;;5.60;5.40;;;;;;;14.22;34.50;101185.66;6101963;23;20335;-69
2022/04/20 08:57:52;;;;;;;4.88;4.68;;;;;;;14.32;33.30;101185.00;6103055;23;20085;-70
2022/04/20 09:00:22;;;;;;;4.88;4.68;;;;;;;14.51;34.23;101176.84;6104536;23;20033;-71
2022/04/20 09:02:55;;;;;;;4.50;4.30;;;;;;;14.76;33.36;101178.84;6112249;23;20025;-69
2022/04/20 09:05:22;;;;;;;;;;;;;;;14.64;32.87;101187.53;6079436;23;20084;-70
2022/04/20 09:07:48;;;;;;;4.60;4.40;;;;;;;14.57;34.20;101175.63;6098570;23;19905;-70
2022/04/20 09:10:18;;;;;;;4.72;4.53;;;;;;;14.77;33.22;101182.31;6118094;23;20055;-70
2022/04/20 09:12:46;;;;;;;4.57;4.38;;;;;;;14.59;34.06;101173.72;6103760;23;20029;-70
2022/04/20 09:15:28;;;;;;;4.45;4.25;;;;;;;13.93;36.10;101154.78;6108290;23;20462;-70
2022/04/20 09:17:56;;;;;;;4.50;4.30;;;;;;;14.41;32.79;101188.03;6097032;23;20022;-70
2022/04/20 09:20:22;;;;;;;5.40;5.20;;;;;;;14.72;32.51;101176.50;6092590;23;20065;-70
2022/04/20 09:23:07;;;;;;;16.55;15.70;;;;;;;14.67;32.49;101179.44;5980604;23;21197;-70
2022/04/20 09:25:45;;;;;;;4.90;4.60;;;;;;;15.01;33.78;101155.31;6092372;23;20426;-69
2022/04/20 09:28:12;;;;;;;4.65;4.45;;;;;;;15.45;33.10;101163.00;6105257;23;20467;-69
2022/04/20 09:30:40;;;;;;;4.50;4.30;;;;;;;15.38;35.03;101174.94;6090414;23;20080;-69
2022/04/20 09:33:09;;;;;;;4.35;4.15;;;;;;;15.43;32.62;101187.88;6105121;23;20030;-69
2022/04/20 09:35:44;;;;;;;4.50;4.30;;;;;;;15.45;32.16;101170.94;6103340;23;20276;-69
2022/04/20 09:38:11;;;;;;;4.63;4.40;;;;;;;15.12;34.45;101156.31;6087631;23;20085;-71
2022/04/20 09:40:38;;;;;;;4.47;4.28;;;;;;;14.90;34.00;101153.34;6103986;23;20013;-69
2022/04/20 09:43:16;;;;;;;4.50;4.30;;;;;;;15.25;35.43;101150.25;6096334;23;20029;-69
2022/04/20 09:45:43;;;;;;;4.53;4.32;;;;;;;15.33;34.07;101145.28;6111352;23;20036;-69
2022/04/20 09:51:11;;;;;;;4.85;4.65;;;;;;;15.21;33.36;101156.69;6123751;23;20104;-70
2022/04/20 09:53:43;;;;;;;5.95;5.50;;;;;;;15.22;33.07;101124.00;6106128;23;20203;-69
2022/04/20 09:56:27;;;;;;;4.60;4.40;;;;;;;15.31;34.05;101142.75;6122095;23;20036;-69
2022/04/20 09:58:59;;;;;;;4.53;4.32;;;;;;;15.39;33.58;101081.41;6116980;23;20022;-69
2022/04/20 10:01:35;;;;;;;6.32;6.03;;;;;;;16.07;32.86;101133.31;6097102;23;20209;-70
2022/04/20 10:04:04;;;;;;;4.70;4.50;;;;;;;16.26;32.20;101132.94;6099889;23;20014;-70
2022/04/20 10:06:32;;;;;;;6.65;6.18;;;;;;;16.29;31.26;101127.41;6107174;23;20256;-70
2022/04/20 10:08:59;;;;;;;4.43;4.22;;;;;;;15.62;31.44;101097.59;6089913;23;20384;-70
2022/04/20 10:11:27;;;;;;;6.07;5.78;;;;;;;15.99;31.92;101114.47;6114329;23;20049;-69
2022/04/20 10:16:51;;;;;;;5.15;4.85;;;;;;;16.27;31.02;101112.56;6102831;23;20079;-69
2022/04/20 10:19:28;;;;;;;4.78;4.57;;;;;;;16.33;31.82;101109.50;6083167;23;20333;-69
2022/04/20 10:21:56;;;;;;;4.60;4.40;;;;;;;16.70;31.63;101105.09;6101046;23;20415;-69
2022/04/20 10:24:29;;;;;;;6.38;6.07;;;;;;;16.68;33.01;101085.81;6089585;23;20045;-69
2022/04/20 10:27:03;;;;;;;4.80;4.60;;;;;;;15.95;33.42;101102.41;6119518;23;20093;-70
2022/04/20 10:29:40;;;;;;;5.85;5.60;;;;;;;15.73;32.05;101106.50;6088241;23;20355;-69
2022/04/20 10:32:22;;;;;;;4.80;4.60;;;;;;;15.07;32.65;100960.13;6088053;23;20026;-69
2022/04/20 10:34:50;;;;;;;4.97;4.78;;;;;;;16.19;33.75;101089.28;6118245;23;20037;-70
2022/04/20 10:37:20;;;;;;;5.70;5.40;;;;;;;15.90;32.56;101055.09;6114863;23;20045;-70
2022/04/20 10:39:49;;;;;;;4.43;4.22;;;;;;;15.80;33.71;101064.59;6105479;23;20444;-70
2022/04/20 10:42:19;;;;;;;5.03;4.72;;;;;;;14.27;34.97;100769.97;6101626;23;20022;-70
2022/04/20 10:45:01;;;;;;;4.50;4.30;;;;;;;15.90;32.95;101084.19;6102156;23;20027;-70
2022/04/20 10:47:36;;;;;;;5.82;5.53;;;;;;;15.54;31.13;101013.44;6101621;23;20072;-70
2022/04/20 10:50:20;;;;;;;4.70;4.50;;;;;;;16.28;31.02;101079.84;6090895;23;20101;-69
2022/04/20 10:52:48;;;;;;;4.60;4.40;;;;;;;16.41;31.41;101077.19;6086361;23;20041;-68
2022/04/20 10:55:15;;;;;;;4.72;4.53;;;;;;;16.68;30.00;101067.28;6110690;23;20236;-69
2022/04/20 10:57:43;;;;;;;5.38;5.18;;;;;;;16.99;29.99;101046.50;6090207;23;20013;-69
2022/04/20 11:00:19;;;;;;;4.75;4.55;;;;;;;17.64;30.44;101060.25;6114923;23;20043;-69
2022/04/20 11:02:48;;;;;;;4.90;4.70;;;;;;;17.86;29.50;101017.84;6106112;23;20181;-69
2022/04/20 11:05:18;;;;;;;4.75;4.55;;;;;;;18.26;29.39;101022.69;6111331;23;20370;-69
2022/04/20 11:08:06;;;;;;;5.00;4.80;;;;;;;18.40;27.79;101056.13;6111824;23;20013;-69
2022/04/20 11:10:34;;;;;;;5.88;5.57;;;;;;;18.06;30.42;101049.94;6078137;23;20221;-69
2022/04/20 11:19:12;;;;;;;4.80;4.60;;;;;;;17.53;29.69;101045.97;6114874;23;20014;-69
2022/04/20 11:21:54;;;;;;;;;;;;;;;17.41;31.49;101040.78;6110493;23;20041;-69
2022/04/20 11:24:25;;;;;;;6.95;6.55;;;;;;;17.57;29.13;101040.44;6108701;23;20435;-68
2022/04/20 11:26:52;;;;;;;5.00;4.80;;;;;;;17.62;30.06;101022.34;6124274;23;20033;-70
2022/04/20 11:29:22;;;;;;;6.15;5.85;;;;;;;17.46;30.27;100981.09;6110533;23;20686;-70
2022/04/20 11:31:51;;;;;;;5.10;4.90;;;;;;;17.68;30.12;101024.53;6110388;23;20178;-69
2022/04/20 11:34:20;;;;;;;5.45;5.15;;;;;;;17.99;29.37;101031.00;6080029;23;20372;-69
2022/04/20 11:36:58;;;;;;;5.10;4.90;;;;;;;18.08;27.90;101032.09;6107960;23;20032;-70
2022/04/20 11:39:26;;;;;;;6.82;6.45;;;;;;;18.13;30.07;101016.66;6087180;23;20032;-69
2022/04/20 11:41:55;;;;;;;5.10;4.90;;;;;;;18.24;28.96;101031.72;6111202;23;20029;-69
2022/04/20 11:44:28;;;;;;;6.85;6.45;;;;;;;17.40;29.90;100965.66;6107228;23;20046;-68
2022/04/20 11:46:59;;;;;;;5.22;5.00;;;;;;;17.11;30.20;100986.41;6087292;23;20029;-70
2022/04/20 11:49:35;;;;;;;6.18;5.88;;;;;;;17.27;31.42;101002.00;6103455;23;20031;-70
2022/04/20 11:52:06;;;;;;;5.00;4.80;;;;;;;17.37;32.16;100987.09;6102880;23;20026;-70
2022/04/20 11:54:34;;;;;;;5.95;5.65;;;;;;;17.70;30.31;101002.25;6097550;23;20048;-70
2022/04/20 11:57:03;;;;;;;5.13;4.90;;;;;;;17.72;31.20;101007.41;6098733;23;20017;-70
2022/04/20 11:59:30;;;;;;;6.40;6.10;;;;;;;17.54;29.84;100981.34;6111576;23;20017;-70
2022/04/20 12:01:56;;;;;;;4.90;4.70;;;;;;;17.72;30.24;101002.09;6096094;23;20072;-69
2022/04/20 12:04:27;;;;;;;7.20;6.85;;;;;;;17.51;29.77;100994.00;6093527;23;20245;-68
2022/04/20 12:06:59;;;;;;;4.78;4.57;;;;;;;17.69;29.24;100997.03;6097560;23;20018;-71